sensor_id;sensor_type;location;lat;lon;timestamp;temperature;humidity
4604;DHT22;2314;48.272;11.562;2022-09-16T00:02:05;12.20;99.90
4604;DHT22;2314;48.272;11.562;2022-09-16T00:04:34;12.30;99.90
4604;DHT22;2314;48.272;11.562;2022-09-16T00:07:01;12.40;99.90
4604;DHT22;2314;48.272;11.562;2022-09-16T00:09:28;12.40;99.90
4604;DHT22;2314;48.272;11.562;2022-09-16T00:11:55;12.50;99.90
4604;DHT22;2314;48.272;11.562;2022-09-16T00:14:22;12.60;99.90
4604;DHT22;2314;48.272;11.562;2022-09-16T00:16:49;12.60;99.90
4604;DHT22;2314;48.272;11.562;2022-09-16T00:19:16;12.60;99.90
4604;DHT22;2314;48.272;11.562;2022-09-16T00:21:46;12.70;99.90
4604;DHT22;2314;48.272;11.562;2022-09-16T00:24:13;12.70;99.90
4604;DHT22;2314;48.272;11.562;2022-09-16T00:26:41;12.70;99.90
4604;DHT22;2314;48.272;11.562;2022-09-16T00:29:08;12.70;99.90
4604;DHT22;2314;48.272;11.562;2022-09-16T00:31:35;12.70;99.90
4604;DHT22;2314;48.272;11.562;2022-09-16T00:34:02;12.80;99.90
4604;DHT22;2314;48.272;11.562;2022-09-16T00:36:30;12.80;99.90
4604;DHT22;2314;48.272;11.562;2022-09-16T00:38:58;12.80;99.90
4604;DHT22;2314;48.272;11.562;2022-09-16T00:41:27;12.80;99.90
4604;DHT22;2314;48.272;11.562;2022-09-16T00:43:59;12.70;99.90
4604;DHT22;2314;48.272;11.562;2022-09-16T00:46:31;12.70;99.90
4604;DHT22;2314;48.272;11.562;2022-09-16T00:49:08;12.60;99.90
4604;DHT22;2314;48.272;11.562;2022-09-16T00:51:37;12.60;99.90
4604;DHT22;2314;48.272;11.562;2022-09-16T00:54:07;12.50;99.90
4604;DHT22;2314;48.272;11.562;2022-09-16T00:56:37;12.50;99.90
4604;DHT22;2314;48.272;11.562;2022-09-16T00:59:07;12.40;99.90
4604;DHT22;2314;48.272;11.562;2022-09-16T01:01:37;12.50;99.90
4604;DHT22;2314;48.272;11.562;2022-09-16T01:04:13;12.40;99.90
4604;DHT22;2314;48.272;11.562;2022-09-16T01:06:42;12.50;99.90
4604;DHT22;2314;48.272;11.562;2022-09-16T01:09:11;12.50;99.90
4604;DHT22;2314;48.272;11.562;2022-09-16T01:11:39;12.60;99.90
4604;DHT22;2314;48.272;11.562;2022-09-16T01:14:06;12.60;99.90
4604;DHT22;2314;48.272;11.562;2022-09-16T01:16:55;12.60;99.90
4604;DHT22;2314;48.272;11.562;2022-09-16T01:19:38;12.60;99.90
4604;DHT22;2314;48.272;11.562;2022-09-16T01:22:25;12.60;99.90
4604;DHT22;2314;48.272;11.562;2022-09-16T01:25:07;12.60;99.90
4604;DHT22;2314;48.272;11.562;2022-09-16T01:27:52;12.60;99.90
4604;DHT22;2314;48.272;11.562;2022-09-16T01:30:43;12.60;99.90
4604;DHT22;2314;48.272;11.562;2022-09-16T01:33:20;12.60;99.90
4604;DHT22;2314;48.272;11.562;2022-09-16T01:36:19;12.60;99.90
4604;DHT22;2314;48.272;11.562;2022-09-16T01:39:05;12.60;99.90
4604;DHT22;2314;48.272;11.562;2022-09-16T01:41:43;12.60;99.90
4604;DHT22;2314;48.272;11.562;2022-09-16T01:44:22;12.60;99.90
4604;DHT22;2314;48.272;11.562;2022-09-16T01:46:59;12.60;99.90
4604;DHT22;2314;48.272;11.562;2022-09-16T01:49:37;12.70;99.90
4604;DHT22;2314;48.272;11.562;2022-09-16T01:52:18;12.70;99.90
4604;DHT22;2314;48.272;11.562;2022-09-16T01:54:51;12.70;99.90
4604;DHT22;2314;48.272;11.562;2022-09-16T01:57:22;12.70;99.90
4604;DHT22;2314;48.272;11.562;2022-09-16T01:59:57;12.70;99.90
4604;DHT22;2314;48.272;11.562;2022-09-16T02:02:32;12.70;99.90
4604;DHT22;2314;48.272;11.562;2022-09-16T02:05:06;12.70;99.90
4604;DHT22;2314;48.272;11.562;2022-09-16T02:07:38;12.80;99.90
4604;DHT22;2314;48.272;11.562;2022-09-16T02:10:14;12.80;99.90
4604;DHT22;2314;48.272;11.562;2022-09-16T02:12:43;12.80;99.90
4604;DHT22;2314;48.272;11.562;2022-09-16T02:15:15;12.80;99.90
4604;DHT22;2314;48.272;11.562;2022-09-16T02:17:50;12.90;99.90
4604;DHT22;2314;48.272;11.562;2022-09-16T02:20:24;12.90;99.90
4604;DHT22;2314;48.272;11.562;2022-09-16T02:22:56;12.90;99.90
4604;DHT22;2314;48.272;11.562;2022-09-16T02:25:27;12.90;99.90
4604;DHT22;2314;48.272;11.562;2022-09-16T02:27:55;12.90;99.90
4604;DHT22;2314;48.272;11.562;2022-09-16T02:30:22;12.90;99.90
4604;DHT22;2314;48.272;11.562;2022-09-16T02:32:56;13.00;99.90
4604;DHT22;2314;48.272;11.562;2022-09-16T02:35:26;13.00;99.90
4604;DHT22;2314;48.272;11.562;2022-09-16T02:37:56;13.00;99.90
4604;DHT22;2314;48.272;11.562;2022-09-16T02:40:30;13.00;99.90
4604;DHT22;2314;48.272;11.562;2022-09-16T02:43:00;13.00;99.90
4604;DHT22;2314;48.272;11.562;2022-09-16T02:45:35;13.10;99.90
4604;DHT22;2314;48.272;11.562;2022-09-16T02:48:14;13.10;99.90
4604;DHT22;2314;48.272;11.562;2022-09-16T02:50:51;13.20;99.90
4604;DHT22;2314;48.272;11.562;2022-09-16T02:53:26;13.10;99.90
4604;DHT22;2314;48.272;11.562;2022-09-16T02:56:02;13.20;99.90
4604;DHT22;2314;48.272;11.562;2022-09-16T02:58:31;13.20;99.90
4604;DHT22;2314;48.272;11.562;2022-09-16T03:00:59;13.20;99.90
4604;DHT22;2314;48.272;11.562;2022-09-16T03:03:27;13.20;99.90
4604;DHT22;2314;48.272;11.562;2022-09-16T03:06:13;13.20;99.90
4604;DHT22;2314;48.272;11.562;2022-09-16T03:08:44;13.20;99.90
4604;DHT22;2314;48.272;11.562;2022-09-16T03:11:27;13.20;99.90
4604;DHT22;2314;48.272;11.562;2022-09-16T03:14:15;13.20;99.90
4604;DHT22;2314;48.272;11.562;2022-09-16T03:17:16;13.20;99.90
4604;DHT22;2314;48.272;11.562;2022-09-16T03:19:58;13.20;99.90
4604;DHT22;2314;48.272;11.562;2022-09-16T03:22:42;13.20;99.90
4604;DHT22;2314;48.272;11.562;2022-09-16T03:25:22;13.20;99.90
4604;DHT22;2314;48.272;11.562;2022-09-16T03:28:03;13.20;99.90
4604;DHT22;2314;48.272;11.562;2022-09-16T03:30:36;13.20;99.90
4604;DHT22;2314;48.272;11.562;2022-09-16T03:33:10;13.20;99.90
4604;DHT22;2314;48.272;11.562;2022-09-16T03:35:47;13.20;99.90
4604;DHT22;2314;48.272;11.562;2022-09-16T03:38:16;13.20;99.90
4604;DHT22;2314;48.272;11.562;2022-09-16T03:40:46;13.10;99.90
4604;DHT22;2314;48.272;11.562;2022-09-16T03:43:15;13.10;99.90
4604;DHT22;2314;48.272;11.562;2022-09-16T03:45:42;13.10;99.90
4604;DHT22;2314;48.272;11.562;2022-09-16T03:48:10;13.00;99.90
4604;DHT22;2314;48.272;11.562;2022-09-16T03:50:38;13.00;99.90
4604;DHT22;2314;48.272;11.562;2022-09-16T03:53:07;13.00;99.90
4604;DHT22;2314;48.272;11.562;2022-09-16T03:55:34;13.00;99.90
4604;DHT22;2314;48.272;11.562;2022-09-16T03:58:01;13.00;99.90
4604;DHT22;2314;48.272;11.562;2022-09-16T04:00:28;13.00;99.90
4604;DHT22;2314;48.272;11.562;2022-09-16T04:02:55;13.00;99.90
4604;DHT22;2314;48.272;11.562;2022-09-16T04:05:25;13.00;99.90
4604;DHT22;2314;48.272;11.562;2022-09-16T04:07:52;12.90;99.90
4604;DHT22;2314;48.272;11.562;2022-09-16T04:10:21;12.90;99.90
4604;DHT22;2314;48.272;11.562;2022-09-16T04:12:48;12.80;99.90
4604;DHT22;2314;48.272;11.562;2022-09-16T04:15:15;12.80;99.90
4604;DHT22;2314;48.272;11.562;2022-09-16T04:17:42;12.70;99.90
4604;DHT22;2314;48.272;11.562;2022-09-16T04:20:09;12.70;99.90
4604;DHT22;2314;48.272;11.562;2022-09-16T04:22:36;12.80;99.90
4604;DHT22;2314;48.272;11.562;2022-09-16T04:25:04;12.70;99.90
4604;DHT22;2314;48.272;11.562;2022-09-16T04:27:33;12.70;99.90
4604;DHT22;2314;48.272;11.562;2022-09-16T04:30:00;12.70;99.90
4604;DHT22;2314;48.272;11.562;2022-09-16T04:32:27;12.70;99.90
4604;DHT22;2314;48.272;11.562;2022-09-16T04:34:54;12.70;99.90
4604;DHT22;2314;48.272;11.562;2022-09-16T04:37:21;12.80;99.90
4604;DHT22;2314;48.272;11.562;2022-09-16T04:39:48;12.70;99.90
4604;DHT22;2314;48.272;11.562;2022-09-16T04:42:15;12.70;99.90
4604;DHT22;2314;48.272;11.562;2022-09-16T04:44:43;12.70;99.90
4604;DHT22;2314;48.272;11.562;2022-09-16T04:47:10;12.60;99.90
4604;DHT22;2314;48.272;11.562;2022-09-16T04:49:37;12.60;99.90
4604;DHT22;2314;48.272;11.562;2022-09-16T04:52:04;12.60;99.90
4604;DHT22;2314;48.272;11.562;2022-09-16T04:54:31;12.60;99.90
4604;DHT22;2314;48.272;11.562;2022-09-16T04:56:58;12.60;99.90
4604;DHT22;2314;48.272;11.562;2022-09-16T04:59:25;12.60;99.90
4604;DHT22;2314;48.272;11.562;2022-09-16T05:01:54;12.60;99.90
4604;DHT22;2314;48.272;11.562;2022-09-16T05:04:21;12.60;99.90
4604;DHT22;2314;48.272;11.562;2022-09-16T05:06:49;12.60;99.90
4604;DHT22;2314;48.272;11.562;2022-09-16T05:09:16;12.60;99.90
4604;DHT22;2314;48.272;11.562;2022-09-16T05:11:43;12.70;99.90
4604;DHT22;2314;48.272;11.562;2022-09-16T05:14:21;12.60;99.90
4604;DHT22;2314;48.272;11.562;2022-09-16T05:16:58;12.60;99.90
4604;DHT22;2314;48.272;11.562;2022-09-16T05:19:25;12.70;99.90
4604;DHT22;2314;48.272;11.562;2022-09-16T05:21:53;12.70;99.90
4604;DHT22;2314;48.272;11.562;2022-09-16T05:24:20;12.70;99.90
4604;DHT22;2314;48.272;11.562;2022-09-16T05:26:47;12.70;99.90
4604;DHT22;2314;48.272;11.562;2022-09-16T05:29:15;12.80;99.90
4604;DHT22;2314;48.272;11.562;2022-09-16T05:31:44;12.80;99.90
4604;DHT22;2314;48.272;11.562;2022-09-16T05:34:15;12.80;99.90
4604;DHT22;2314;48.272;11.562;2022-09-16T05:36:45;12.80;99.90
4604;DHT22;2314;48.272;11.562;2022-09-16T05:39:14;12.80;99.90
4604;DHT22;2314;48.272;11.562;2022-09-16T05:41:42;12.90;99.90
4604;DHT22;2314;48.272;11.562;2022-09-16T05:44:10;12.90;99.90
4604;DHT22;2314;48.272;11.562;2022-09-16T05:46:37;12.90;99.90
4604;DHT22;2314;48.272;11.562;2022-09-16T05:49:05;12.80;99.90
4604;DHT22;2314;48.272;11.562;2022-09-16T05:51:35;12.80;99.90
4604;DHT22;2314;48.272;11.562;2022-09-16T05:54:03;12.90;99.90
4604;DHT22;2314;48.272;11.562;2022-09-16T05:56:31;12.90;99.90
4604;DHT22;2314;48.272;11.562;2022-09-16T05:58:59;13.00;99.90
4604;DHT22;2314;48.272;11.562;2022-09-16T06:01:28;13.00;99.90
4604;DHT22;2314;48.272;11.562;2022-09-16T06:03:58;13.00;99.90
4604;DHT22;2314;48.272;11.562;2022-09-16T06:06:28;13.00;99.90
4604;DHT22;2314;48.272;11.562;2022-09-16T06:08:59;13.10;99.90
4604;DHT22;2314;48.272;11.562;2022-09-16T06:11:29;13.20;99.90
4604;DHT22;2314;48.272;11.562;2022-09-16T06:13:57;13.20;99.90
4604;DHT22;2314;48.272;11.562;2022-09-16T06:16:27;13.10;99.90
4604;DHT22;2314;48.272;11.562;2022-09-16T06:18:58;13.20;99.90
4604;DHT22;2314;48.272;11.562;2022-09-16T06:21:26;13.20;99.90
4604;DHT22;2314;48.272;11.562;2022-09-16T06:23:54;13.20;99.90
4604;DHT22;2314;48.272;11.562;2022-09-16T06:26:26;13.30;99.90
4604;DHT22;2314;48.272;11.562;2022-09-16T06:28:54;13.20;99.90
4604;DHT22;2314;48.272;11.562;2022-09-16T06:31:22;13.20;99.90
4604;DHT22;2314;48.272;11.562;2022-09-16T06:33:51;13.10;99.90
4604;DHT22;2314;48.272;11.562;2022-09-16T06:36:21;13.10;99.90
4604;DHT22;2314;48.272;11.562;2022-09-16T06:38:49;13.00;99.90
4604;DHT22;2314;48.272;11.562;2022-09-16T06:41:18;13.10;99.90
4604;DHT22;2314;48.272;11.562;2022-09-16T06:43:48;13.10;99.90
4604;DHT22;2314;48.272;11.562;2022-09-16T06:46:18;13.10;99.90
4604;DHT22;2314;48.272;11.562;2022-09-16T06:48:48;13.10;99.90
4604;DHT22;2314;48.272;11.562;2022-09-16T06:51:18;13.20;99.90
4604;DHT22;2314;48.272;11.562;2022-09-16T06:53:47;13.20;99.90
4604;DHT22;2314;48.272;11.562;2022-09-16T06:56:17;13.20;99.90
4604;DHT22;2314;48.272;11.562;2022-09-16T06:58:49;13.20;99.90
4604;DHT22;2314;48.272;11.562;2022-09-16T07:01:19;13.20;99.90
4604;DHT22;2314;48.272;11.562;2022-09-16T07:03:49;13.20;99.90
4604;DHT22;2314;48.272;11.562;2022-09-16T07:06:18;13.20;99.90
4604;DHT22;2314;48.272;11.562;2022-09-16T07:08:47;13.30;99.90
4604;DHT22;2314;48.272;11.562;2022-09-16T07:11:16;13.30;99.90
4604;DHT22;2314;48.272;11.562;2022-09-16T07:13:45;13.30;99.90
4604;DHT22;2314;48.272;11.562;2022-09-16T07:16:19;13.30;99.90
4604;DHT22;2314;48.272;11.562;2022-09-16T07:18:51;13.40;99.90
4604;DHT22;2314;48.272;11.562;2022-09-16T07:21:23;13.40;99.90
4604;DHT22;2314;48.272;11.562;2022-09-16T07:23:54;13.40;99.90
4604;DHT22;2314;48.272;11.562;2022-09-16T07:26:24;13.40;99.90
4604;DHT22;2314;48.272;11.562;2022-09-16T07:28:54;13.40;99.90
4604;DHT22;2314;48.272;11.562;2022-09-16T07:31:24;13.50;99.90
4604;DHT22;2314;48.272;11.562;2022-09-16T07:33:58;13.50;99.90
4604;DHT22;2314;48.272;11.562;2022-09-16T07:36:28;13.60;99.90
4604;DHT22;2314;48.272;11.562;2022-09-16T07:38:58;13.70;99.90
4604;DHT22;2314;48.272;11.562;2022-09-16T07:41:26;13.80;99.90
4604;DHT22;2314;48.272;11.562;2022-09-16T07:43:58;13.80;99.90
4604;DHT22;2314;48.272;11.562;2022-09-16T07:46:27;13.90;99.90
4604;DHT22;2314;48.272;11.562;2022-09-16T07:48:56;13.90;99.90
4604;DHT22;2314;48.272;11.562;2022-09-16T07:51:25;13.90;99.90
4604;DHT22;2314;48.272;11.562;2022-09-16T07:53:55;14.00;99.90
4604;DHT22;2314;48.272;11.562;2022-09-16T07:56:25;14.00;99.90
4604;DHT22;2314;48.272;11.562;2022-09-16T07:59:06;14.10;99.90
4604;DHT22;2314;48.272;11.562;2022-09-16T08:01:40;14.10;99.90
4604;DHT22;2314;48.272;11.562;2022-09-16T08:04:10;14.10;99.90
4604;DHT22;2314;48.272;11.562;2022-09-16T08:06:38;14.10;99.90
4604;DHT22;2314;48.272;11.562;2022-09-16T08:09:06;14.10;99.90
4604;DHT22;2314;48.272;11.562;2022-09-16T08:11:35;14.20;99.90
4604;DHT22;2314;48.272;11.562;2022-09-16T08:14:04;14.20;99.90
4604;DHT22;2314;48.272;11.562;2022-09-16T08:16:36;14.30;99.90
4604;DHT22;2314;48.272;11.562;2022-09-16T08:19:03;14.30;99.90
4604;DHT22;2314;48.272;11.562;2022-09-16T08:21:31;14.30;99.90
4604;DHT22;2314;48.272;11.562;2022-09-16T08:23:58;14.30;99.90
4604;DHT22;2314;48.272;11.562;2022-09-16T08:26:25;14.40;99.90
4604;DHT22;2314;48.272;11.562;2022-09-16T08:28:53;14.40;99.90
4604;DHT22;2314;48.272;11.562;2022-09-16T08:31:29;14.40;99.90
4604;DHT22;2314;48.272;11.562;2022-09-16T08:33:56;14.40;99.90
4604;DHT22;2314;48.272;11.562;2022-09-16T08:36:24;14.50;99.90
4604;DHT22;2314;48.272;11.562;2022-09-16T08:38:54;14.50;99.90
4604;DHT22;2314;48.272;11.562;2022-09-16T08:41:44;14.40;99.90
4604;DHT22;2314;48.272;11.562;2022-09-16T08:44:29;14.40;99.90
4604;DHT22;2314;48.272;11.562;2022-09-16T08:47:04;14.30;99.90
4604;DHT22;2314;48.272;11.562;2022-09-16T08:49:38;14.40;99.90
4604;DHT22;2314;48.272;11.562;2022-09-16T08:52:10;14.40;99.90
4604;DHT22;2314;48.272;11.562;2022-09-16T08:54:41;14.40;99.90
4604;DHT22;2314;48.272;11.562;2022-09-16T08:57:13;14.40;99.90
4604;DHT22;2314;48.272;11.562;2022-09-16T08:59:47;14.40;99.90
4604;DHT22;2314;48.272;11.562;2022-09-16T09:02:31;14.30;99.90
4604;DHT22;2314;48.272;11.562;2022-09-16T09:05:14;14.20;99.90
4604;DHT22;2314;48.272;11.562;2022-09-16T09:08:05;14.20;99.90
4604;DHT22;2314;48.272;11.562;2022-09-16T09:10:46;14.20;99.90
4604;DHT22;2314;48.272;11.562;2022-09-16T09:13:35;14.10;99.90
4604;DHT22;2314;48.272;11.562;2022-09-16T09:16:19;14.10;99.90
4604;DHT22;2314;48.272;11.562;2022-09-16T09:19:12;14.10;99.90
4604;DHT22;2314;48.272;11.562;2022-09-16T09:21:52;14.10;99.90
4604;DHT22;2314;48.272;11.562;2022-09-16T09:24:42;14.10;99.90
4604;DHT22;2314;48.272;11.562;2022-09-16T09:27:24;14.10;99.90
4604;DHT22;2314;48.272;11.562;2022-09-16T09:30:02;14.20;99.90
4604;DHT22;2314;48.272;11.562;2022-09-16T09:32:47;14.30;99.90
4604;DHT22;2314;48.272;11.562;2022-09-16T09:35:30;14.30;99.90
4604;DHT22;2314;48.272;11.562;2022-09-16T09:41:11;14.30;99.90
4604;DHT22;2314;48.272;11.562;2022-09-16T09:43:47;14.40;99.90
4604;DHT22;2314;48.272;11.562;2022-09-16T09:46:24;14.30;99.90
4604;DHT22;2314;48.272;11.562;2022-09-16T09:49:04;14.50;99.90
4604;DHT22;2314;48.272;11.562;2022-09-16T09:51:42;14.50;99.90
4604;DHT22;2314;48.272;11.562;2022-09-16T09:54:25;14.60;99.90
4604;DHT22;2314;48.272;11.562;2022-09-16T09:57:00;14.40;99.90
4604;DHT22;2314;48.272;11.562;2022-09-16T09:59:34;14.30;99.90
4604;DHT22;2314;48.272;11.562;2022-09-16T10:02:14;14.20;99.90
4604;DHT22;2314;48.272;11.562;2022-09-16T10:04:43;13.90;99.90
4604;DHT22;2314;48.272;11.562;2022-09-16T10:07:16;13.80;99.90
4604;DHT22;2314;48.272;11.562;2022-09-16T10:09:48;13.60;99.90
4604;DHT22;2314;48.272;11.562;2022-09-16T10:12:28;13.60;99.90
4604;DHT22;2314;48.272;11.562;2022-09-16T10:14:57;13.30;99.90
4604;DHT22;2314;48.272;11.562;2022-09-16T10:17:27;13.20;99.90
4604;DHT22;2314;48.272;11.562;2022-09-16T10:19:58;13.10;99.90
4604;DHT22;2314;48.272;11.562;2022-09-16T10:22:29;12.90;99.90
4604;DHT22;2314;48.272;11.562;2022-09-16T10:24:58;12.80;99.90
4604;DHT22;2314;48.272;11.562;2022-09-16T10:27:28;12.70;99.90
4604;DHT22;2314;48.272;11.562;2022-09-16T10:30:08;12.60;99.90
4604;DHT22;2314;48.272;11.562;2022-09-16T10:32:45;12.60;99.90
4604;DHT22;2314;48.272;11.562;2022-09-16T10:35:19;12.60;99.90
4604;DHT22;2314;48.272;11.562;2022-09-16T10:37:54;12.60;99.90
4604;DHT22;2314;48.272;11.562;2022-09-16T10:40:24;12.70;99.90
4604;DHT22;2314;48.272;11.562;2022-09-16T10:42:58;12.80;99.90
4604;DHT22;2314;48.272;11.562;2022-09-16T10:45:30;12.90;99.90
4604;DHT22;2314;48.272;11.562;2022-09-16T10:48:10;13.10;99.90
4604;DHT22;2314;48.272;11.562;2022-09-16T10:50:57;13.30;99.90
4604;DHT22;2314;48.272;11.562;2022-09-16T10:53:30;13.30;99.90
4604;DHT22;2314;48.272;11.562;2022-09-16T10:56:00;13.30;99.90
4604;DHT22;2314;48.272;11.562;2022-09-16T10:58:28;13.30;99.90
4604;DHT22;2314;48.272;11.562;2022-09-16T11:01:05;13.20;99.90
4604;DHT22;2314;48.272;11.562;2022-09-16T11:07:09;12.70;99.90
4604;DHT22;2314;48.272;11.562;2022-09-16T11:09:53;12.50;99.90
4604;DHT22;2314;48.272;11.562;2022-09-16T11:13:03;12.30;99.90
4604;DHT22;2314;48.272;11.562;2022-09-16T11:15:48;12.30;99.90
4604;DHT22;2314;48.272;11.562;2022-09-16T11:18:34;12.20;99.90
4604;DHT22;2314;48.272;11.562;2022-09-16T11:21:39;12.10;99.90
4604;DHT22;2314;48.272;11.562;2022-09-16T11:27:53;12.00;99.90
4604;DHT22;2314;48.272;11.562;2022-09-16T11:30:26;11.90;99.90
4604;DHT22;2314;48.272;11.562;2022-09-16T11:33:02;11.70;99.90
4604;DHT22;2314;48.272;11.562;2022-09-16T11:38:40;11.60;99.90
4604;DHT22;2314;48.272;11.562;2022-09-16T11:41:16;11.70;99.90
4604;DHT22;2314;48.272;11.562;2022-09-16T11:44:25;11.80;99.90
4604;DHT22;2314;48.272;11.562;2022-09-16T11:47:21;11.80;99.90
4604;DHT22;2314;48.272;11.562;2022-09-16T11:50:07;11.80;99.90
4604;DHT22;2314;48.272;11.562;2022-09-16T11:53:00;11.80;99.90
4604;DHT22;2314;48.272;11.562;2022-09-16T11:55:49;11.80;99.90
4604;DHT22;2314;48.272;11.562;2022-09-16T11:58:23;11.90;99.90
4604;DHT22;2314;48.272;11.562;2022-09-16T12:01:00;12.00;99.90
4604;DHT22;2314;48.272;11.562;2022-09-16T12:03:36;12.10;99.90
4604;DHT22;2314;48.272;11.562;2022-09-16T12:06:09;12.10;99.90
4604;DHT22;2314;48.272;11.562;2022-09-16T12:08:48;12.10;99.90
4604;DHT22;2314;48.272;11.562;2022-09-16T12:11:23;12.10;99.90
4604;DHT22;2314;48.272;11.562;2022-09-16T12:14:02;12.10;99.90
4604;DHT22;2314;48.272;11.562;2022-09-16T12:16:40;12.00;99.90
4604;DHT22;2314;48.272;11.562;2022-09-16T12:19:14;12.00;99.90
4604;DHT22;2314;48.272;11.562;2022-09-16T12:21:47;12.10;99.90
4604;DHT22;2314;48.272;11.562;2022-09-16T12:24:22;12.00;99.90
4604;DHT22;2314;48.272;11.562;2022-09-16T12:26:56;12.00;99.90
4604;DHT22;2314;48.272;11.562;2022-09-16T12:29:33;12.00;99.90
4604;DHT22;2314;48.272;11.562;2022-09-16T12:32:10;12.00;99.90
4604;DHT22;2314;48.272;11.562;2022-09-16T12:34:42;12.00;99.90
4604;DHT22;2314;48.272;11.562;2022-09-16T12:37:22;12.10;99.90
4604;DHT22;2314;48.272;11.562;2022-09-16T12:39:58;12.10;99.90
4604;DHT22;2314;48.272;11.562;2022-09-16T12:42:48;12.00;99.90
4604;DHT22;2314;48.272;11.562;2022-09-16T12:46:09;11.90;99.90
4604;DHT22;2314;48.272;11.562;2022-09-16T12:52:35;11.70;99.90
4604;DHT22;2314;48.272;11.562;2022-09-16T12:55:38;11.60;99.90
4604;DHT22;2314;48.272;11.562;2022-09-16T12:58:44;11.50;99.90
4604;DHT22;2314;48.272;11.562;2022-09-16T13:01:21;11.40;99.90
4604;DHT22;2314;48.272;11.562;2022-09-16T13:03:54;11.50;99.90
4604;DHT22;2314;48.272;11.562;2022-09-16T13:06:26;11.50;99.90
4604;DHT22;2314;48.272;11.562;2022-09-16T13:08:55;11.50;99.90
4604;DHT22;2314;48.272;11.562;2022-09-16T13:11:27;11.50;99.90
4604;DHT22;2314;48.272;11.562;2022-09-16T13:13:56;11.30;99.90
4604;DHT22;2314;48.272;11.562;2022-09-16T13:16:29;11.50;99.90
4604;DHT22;2314;48.272;11.562;2022-09-16T13:19:26;11.50;99.90
4604;DHT22;2314;48.272;11.562;2022-09-16T13:22:10;11.60;99.90
4604;DHT22;2314;48.272;11.562;2022-09-16T13:24:45;11.60;99.90
4604;DHT22;2314;48.272;11.562;2022-09-16T13:27:25;11.60;99.90
4604;DHT22;2314;48.272;11.562;2022-09-16T13:30:14;11.60;99.90
4604;DHT22;2314;48.272;11.562;2022-09-16T13:33:01;11.70;99.90
4604;DHT22;2314;48.272;11.562;2022-09-16T13:35:38;11.80;99.90
4604;DHT22;2314;48.272;11.562;2022-09-16T13:38:37;12.00;99.90
4604;DHT22;2314;48.272;11.562;2022-09-16T13:41:09;12.20;99.90
4604;DHT22;2314;48.272;11.562;2022-09-16T13:43:51;12.10;99.90
4604;DHT22;2314;48.272;11.562;2022-09-16T13:46:28;12.10;99.90
4604;DHT22;2314;48.272;11.562;2022-09-16T13:51:49;11.80;99.90
4604;DHT22;2314;48.272;11.562;2022-09-16T13:54:38;11.70;99.90
4604;DHT22;2314;48.272;11.562;2022-09-16T13:57:20;11.60;99.90
4604;DHT22;2314;48.272;11.562;2022-09-16T14:00:14;11.70;99.90
4604;DHT22;2314;48.272;11.562;2022-09-16T14:03:14;11.70;99.90
4604;DHT22;2314;48.272;11.562;2022-09-16T14:06:27;11.70;99.90
4604;DHT22;2314;48.272;11.562;2022-09-16T14:09:14;11.60;99.90
4604;DHT22;2314;48.272;11.562;2022-09-16T14:11:59;11.60;99.90
4604;DHT22;2314;48.272;11.562;2022-09-16T14:14:31;11.60;99.90
4604;DHT22;2314;48.272;11.562;2022-09-16T14:17:15;11.60;99.90
4604;DHT22;2314;48.272;11.562;2022-09-16T14:19:47;11.70;99.90
4604;DHT22;2314;48.272;11.562;2022-09-16T14:22:20;11.70;99.90
4604;DHT22;2314;48.272;11.562;2022-09-16T14:24:50;11.60;99.90
4604;DHT22;2314;48.272;11.562;2022-09-16T14:27:27;11.60;99.90
4604;DHT22;2314;48.272;11.562;2022-09-16T14:30:02;11.60;99.90
4604;DHT22;2314;48.272;11.562;2022-09-16T14:32:33;11.60;99.90
4604;DHT22;2314;48.272;11.562;2022-09-16T14:35:07;11.70;99.90
4604;DHT22;2314;48.272;11.562;2022-09-16T14:37:37;11.80;99.90
4604;DHT22;2314;48.272;11.562;2022-09-16T14:40:10;11.90;99.90
4604;DHT22;2314;48.272;11.562;2022-09-16T14:42:46;11.90;99.90
4604;DHT22;2314;48.272;11.562;2022-09-16T14:45:16;11.90;99.90
4604;DHT22;2314;48.272;11.562;2022-09-16T14:47:45;11.90;99.90
4604;DHT22;2314;48.272;11.562;2022-09-16T14:50:17;11.90;99.90
4604;DHT22;2314;48.272;11.562;2022-09-16T14:52:53;11.90;99.90
4604;DHT22;2314;48.272;11.562;2022-09-16T14:55:22;11.90;99.90
4604;DHT22;2314;48.272;11.562;2022-09-16T14:57:52;11.90;99.90
4604;DHT22;2314;48.272;11.562;2022-09-16T15:00:19;11.90;99.90
4604;DHT22;2314;48.272;11.562;2022-09-16T15:02:50;11.90;99.90
4604;DHT22;2314;48.272;11.562;2022-09-16T15:05:23;11.90;99.90
4604;DHT22;2314;48.272;11.562;2022-09-16T15:08:03;11.90;99.90
4604;DHT22;2314;48.272;11.562;2022-09-16T15:10:34;11.90;99.90
4604;DHT22;2314;48.272;11.562;2022-09-16T15:13:07;11.90;99.90
4604;DHT22;2314;48.272;11.562;2022-09-16T15:15:36;11.90;99.90
4604;DHT22;2314;48.272;11.562;2022-09-16T15:18:06;11.80;99.90
4604;DHT22;2314;48.272;11.562;2022-09-16T15:20:37;11.90;99.90
4604;DHT22;2314;48.272;11.562;2022-09-16T15:23:06;11.90;99.90
4604;DHT22;2314;48.272;11.562;2022-09-16T15:25:51;12.00;99.90
4604;DHT22;2314;48.272;11.562;2022-09-16T15:28:20;11.90;99.90
4604;DHT22;2314;48.272;11.562;2022-09-16T15:30:51;11.90;99.90
4604;DHT22;2314;48.272;11.562;2022-09-16T15:33:25;12.00;99.90
4604;DHT22;2314;48.272;11.562;2022-09-16T15:35:54;12.00;99.90
4604;DHT22;2314;48.272;11.562;2022-09-16T15:38:22;11.90;99.90
4604;DHT22;2314;48.272;11.562;2022-09-16T15:41:00;11.90;99.90
4604;DHT22;2314;48.272;11.562;2022-09-16T15:43:34;11.80;99.90
4604;DHT22;2314;48.272;11.562;2022-09-16T15:46:06;11.80;99.90
4604;DHT22;2314;48.272;11.562;2022-09-16T15:48:43;11.80;99.90
4604;DHT22;2314;48.272;11.562;2022-09-16T15:51:21;11.80;99.90
4604;DHT22;2314;48.272;11.562;2022-09-16T15:53:54;11.80;99.90
4604;DHT22;2314;48.272;11.562;2022-09-16T15:56:27;11.80;99.90
4604;DHT22;2314;48.272;11.562;2022-09-16T15:59:00;11.90;99.90
4604;DHT22;2314;48.272;11.562;2022-09-16T16:01:36;11.90;99.90
4604;DHT22;2314;48.272;11.562;2022-09-16T16:04:09;12.00;99.90
4604;DHT22;2314;48.272;11.562;2022-09-16T16:06:44;12.00;99.90
4604;DHT22;2314;48.272;11.562;2022-09-16T16:09:32;12.00;99.90
4604;DHT22;2314;48.272;11.562;2022-09-16T16:12:04;12.20;99.90
4604;DHT22;2314;48.272;11.562;2022-09-16T16:14:35;12.40;99.90
4604;DHT22;2314;48.272;11.562;2022-09-16T16:17:05;12.70;99.90
4604;DHT22;2314;48.272;11.562;2022-09-16T16:19:34;12.70;99.90
4604;DHT22;2314;48.272;11.562;2022-09-16T16:22:03;12.60;99.90
4604;DHT22;2314;48.272;11.562;2022-09-16T16:24:31;12.40;99.90
4604;DHT22;2314;48.272;11.562;2022-09-16T16:26:58;12.30;99.90
4604;DHT22;2314;48.272;11.562;2022-09-16T16:29:25;12.30;99.90
4604;DHT22;2314;48.272;11.562;2022-09-16T16:32:05;12.20;99.90
4604;DHT22;2314;48.272;11.562;2022-09-16T16:34:35;12.10;99.90
4604;DHT22;2314;48.272;11.562;2022-09-16T16:37:03;12.00;99.90
4604;DHT22;2314;48.272;11.562;2022-09-16T16:39:31;12.00;99.90
4604;DHT22;2314;48.272;11.562;2022-09-16T16:41:59;11.90;99.90
4604;DHT22;2314;48.272;11.562;2022-09-16T16:44:26;11.80;99.90
4604;DHT22;2314;48.272;11.562;2022-09-16T16:46:54;11.70;99.90
4604;DHT22;2314;48.272;11.562;2022-09-16T16:49:23;11.70;99.90